Time;durP1;ratioP1;P1;durP2;ratioP2;P2;SDS_P1;SDS_P2;PMS_P1;PMS_P2;Temp;Humidity;BMP_temperature;BMP_pressure;BME280_temperature;BME280_humidity;BME280_pressure;Samples;Min_cycle;Max_cycle;Signal;HPM_P1;HPM_P2
2021/09/16 00:01:20;;;;;;;16.20;7.85;;;;;;;-149.78;100.00;50326.72;5032997;28;20033;-60
2021/09/16 00:03:45;;;;;;;15.23;7.65;;;;;;;-149.78;100.00;50338.44;5033375;28;20048;-60
2021/09/16 00:06:12;;;;;;;13.52;8.25;;;;;;;-149.78;100.00;50354.09;5030817;28;20038;-60
2021/09/16 00:08:37;;;;;;;16.92;8.05;;;;;;;-149.78;100.00;50334.53;5018183;28;20497;-60
2021/09/16 00:11:03;;;;;;;14.52;8.07;;;;;;;-149.78;100.00;50311.06;5030195;28;20061;-60
2021/09/16 00:13:29;;;;;;;14.05;8.52;;;;;;;-149.78;100.00;50334.53;5031789;28;20463;-60
2021/09/16 00:15:55;;;;;;;15.55;6.97;;;;;;;-149.78;100.00;50299.34;5022678;28;20100;-60
2021/09/16 00:18:21;;;;;;;16.52;7.22;;;;;;;-149.78;100.00;50330.63;5020664;28;20539;-60
2021/09/16 00:20:47;;;;;;;16.85;7.07;;;;;;;-149.78;100.00;50303.25;5033055;28;20095;-60
2021/09/16 00:23:13;;;;;;;15.40;7.28;;;;;;;-149.78;100.00;50314.97;5031940;28;20029;-60
2021/09/16 00:25:39;;;;;;;11.95;6.82;;;;;;;-149.78;100.00;50330.63;5033180;28;20041;-60
2021/09/16 00:28:05;;;;;;;13.45;7.80;;;;;;;-149.78;100.00;50322.81;5023907;28;20121;-61
2021/09/16 00:30:31;;;;;;;12.68;6.82;;;;;;;-149.78;100.00;50334.53;5023927;28;20084;-60
2021/09/16 00:32:58;;;;;;;14.50;7.40;;;;;;;-149.78;100.00;50328.69;5029821;28;20029;-60
2021/09/16 00:35:24;;;;;;;13.90;6.60;;;;;;;-149.78;100.00;50334.53;5032042;28;20449;-61
2021/09/16 00:37:49;;;;;;;13.65;7.25;;;;;;;-149.78;100.00;50314.97;5029718;28;20033;-60
2021/09/16 00:40:15;;;;;;;11.70;6.60;;;;;;;-149.78;100.00;50324.75;5027543;28;20037;-60
2021/09/16 00:42:43;;;;;;;12.55;6.82;;;;;;;-149.78;100.00;50326.72;5032105;28;20041;-60
2021/09/16 00:45:09;;;;;;;12.30;6.40;;;;;;;-149.78;100.00;50291.50;5031762;28;20045;-60
2021/09/16 00:47:36;;;;;;;12.80;6.72;;;;;;;-149.78;100.00;50322.81;5031466;28;20040;-60
2021/09/16 00:50:02;;;;;;;10.65;5.93;;;;;;;-149.78;100.00;50326.72;5023861;28;20081;-60
2021/09/16 00:52:29;;;;;;;9.32;5.88;;;;;;;-149.78;100.00;50287.59;5031678;28;20404;-60
2021/09/16 00:54:55;;;;;;;12.93;6.57;;;;;;;-149.78;100.00;50326.72;5023903;28;20034;-61
2021/09/16 00:57:23;;;;;;;16.15;6.25;;;;;;;-149.78;100.00;50326.72;5034366;28;20033;-60
2021/09/16 00:59:49;;;;;;;11.07;6.65;;;;;;;-149.78;100.00;50307.16;5035075;28;20061;-60
2021/09/16 01:02:15;;;;;;;10.43;5.70;;;;;;;-149.78;100.00;50309.13;5030124;28;20412;-60
2021/09/16 01:04:41;;;;;;;10.32;5.78;;;;;;;-149.78;100.00;50307.16;5034670;28;20049;-60
2021/09/16 01:07:08;;;;;;;12.48;6.07;;;;;;;-149.78;100.00;50354.09;5035242;28;20500;-60
2021/09/16 01:09:35;;;;;;;9.55;5.68;;;;;;;-149.78;100.00;50365.84;5036200;28;20033;-60
2021/09/16 01:12:00;;;;;;;9.68;5.07;;;;;;;-149.78;100.00;50342.38;5035242;28;20083;-60
2021/09/16 01:14:28;;;;;;;11.05;5.93;;;;;;;-149.78;100.00;50314.97;5034607;28;20037;-60
2021/09/16 01:16:54;;;;;;;10.85;5.93;;;;;;;-149.78;100.00;50328.69;5035252;28;20033;-60
2021/09/16 01:19:22;;;;;;;8.77;5.50;;;;;;;-149.78;100.00;50322.81;5035269;28;20489;-61
2021/09/16 01:21:49;;;;;;;11.95;5.60;;;;;;;-149.78;100.00;50342.38;5034784;28;20034;-60
2021/09/16 01:24:15;;;;;;;10.85;5.35;;;;;;;-149.78;100.00;50314.97;5028643;28;20033;-60
2021/09/16 01:26:44;;;;;;;15.80;6.00;;;;;;;-149.78;100.00;50334.53;5028679;28;20492;-60
2021/09/16 01:29:11;;;;;;;9.48;5.13;;;;;;;-149.78;100.00;50314.97;5032519;28;20025;-60
2021/09/16 01:31:43;;;;;;;9.00;5.60;;;;;;;-149.78;100.00;50303.25;5033216;28;20030;-60
2021/09/16 01:34:10;;;;;;;11.47;6.30;;;;;;;-149.78;100.00;50350.19;5030030;28;20059;-60
2021/09/16 01:36:38;;;;;;;12.45;6.18;;;;;;;-149.78;100.00;50336.50;5034848;28;20045;-60
2021/09/16 01:39:07;;;;;;;11.48;5.80;;;;;;;-149.78;100.00;50328.69;5029023;28;20029;-60
2021/09/16 01:41:32;;;;;;;13.32;6.70;;;;;;;-149.78;100.00;50338.44;5032045;28;20039;-60
2021/09/16 01:43:58;;;;;;;14.25;7.60;;;;;;;-149.78;100.00;50314.97;5026373;28;20029;-60
2021/09/16 01:46:24;;;;;;;13.05;6.93;;;;;;;-149.78;100.00;50311.06;5030494;28;20037;-60
2021/09/16 01:48:49;;;;;;;15.05;7.72;;;;;;;-149.78;100.00;50340.41;5029713;28;20060;-60
2021/09/16 01:51:16;;;;;;;11.02;6.45;;;;;;;-149.78;100.00;50314.97;5027696;28;20034;-61
2021/09/16 01:53:42;;;;;;;11.07;6.60;;;;;;;-149.78;100.00;50299.34;5033112;28;20038;-60
2021/09/16 01:56:08;;;;;;;14.52;7.80;;;;;;;-149.78;100.00;50330.63;5033319;28;20147;-61
2021/09/16 01:58:36;;;;;;;13.52;7.55;;;;;;;-149.78;100.00;50330.63;5025098;28;20060;-60
2021/09/16 02:01:02;;;;;;;18.05;7.60;;;;;;;-149.78;100.00;50322.81;5026661;28;20083;-60
2021/09/16 02:03:28;;;;;;;15.57;7.15;;;;;;;-149.78;100.00;50361.91;5030446;28;20025;-60
2021/09/16 02:05:54;;;;;;;15.13;7.90;;;;;;;-149.78;100.00;50322.81;5034680;28;20500;-60
2021/09/16 02:08:20;;;;;;;14.27;7.72;;;;;;;-149.78;100.00;50352.16;5028385;28;20029;-60
2021/09/16 02:10:46;;;;;;;12.50;6.68;;;;;;;-149.78;100.00;50330.63;5034957;28;20025;-60
2021/09/16 02:13:12;;;;;;;16.30;8.07;;;;;;;-149.78;100.00;50338.44;5033695;28;20026;-60
2021/09/16 02:15:37;;;;;;;16.02;8.70;;;;;;;-149.78;100.00;50303.25;5029299;28;20397;-60
2021/09/16 02:18:04;;;;;;;14.98;8.15;;;;;;;-149.78;100.00;50322.81;5033523;28;20103;-60
2021/09/16 02:20:29;;;;;;;15.25;8.15;;;;;;;-149.78;100.00;50326.72;5026323;28;20053;-60
2021/09/16 02:22:55;;;;;;;18.30;7.95;;;;;;;-149.78;100.00;50295.44;5032156;28;20107;-60
2021/09/16 02:25:21;;;;;;;14.88;8.10;;;;;;;-149.78;100.00;50330.63;5032551;28;20493;-60
2021/09/16 02:27:52;;;;;;;13.65;7.47;;;;;;;-149.78;100.00;50291.50;5030436;28;20485;-60
2021/09/16 02:30:18;;;;;;;15.30;8.57;;;;;;;-149.78;100.00;50346.28;5014081;28;20124;-60
2021/09/16 02:32:44;;;;;;;12.63;7.10;;;;;;;-149.78;100.00;50361.91;5032900;28;20047;-60
2021/09/16 02:35:11;;;;;;;17.05;8.45;;;;;;;-149.78;100.00;50291.50;5022301;28;20055;-60
2021/09/16 02:37:37;;;;;;;15.77;8.95;;;;;;;-149.78;100.00;50313.03;5025305;28;20060;-60
2021/09/16 02:40:04;;;;;;;13.30;7.70;;;;;;;-149.78;100.00;50299.34;5025151;28;20091;-60
2021/09/16 02:42:30;;;;;;;14.38;8.38;;;;;;;-149.78;100.00;50322.81;5034033;28;20079;-60
2021/09/16 02:44:56;;;;;;;14.38;7.50;;;;;;;-149.78;100.00;50303.25;5033346;28;20561;-60
2021/09/16 02:47:21;;;;;;;16.83;7.47;;;;;;;-149.78;100.00;50311.06;5030640;28;20044;-60
2021/09/16 02:49:47;;;;;;;14.50;8.10;;;;;;;-149.78;100.00;50281.75;5034050;28;20500;-60
2021/09/16 02:52:12;;;;;;;16.40;7.85;;;;;;;-149.78;100.00;50307.16;5029910;28;20037;-60
2021/09/16 02:54:38;;;;;;;13.55;7.22;;;;;;;-149.78;100.00;50311.06;5032470;28;20041;-60
2021/09/16 02:57:04;;;;;;;19.70;7.85;;;;;;;-149.78;100.00;50314.97;5031951;28;20024;-60
2021/09/16 02:59:30;;;;;;;14.93;7.07;;;;;;;-149.78;100.00;50307.16;5030534;28;20452;-60
2021/09/16 03:01:55;;;;;;;13.82;7.03;;;;;;;-149.78;100.00;50330.63;5030851;28;20037;-60
2021/09/16 03:04:21;;;;;;;15.40;7.80;;;;;;;-149.78;100.00;50307.16;5029771;28;20041;-61
2021/09/16 03:06:47;;;;;;;13.40;7.05;;;;;;;-149.78;100.00;50303.25;5029968;28;20505;-60
2021/09/16 03:09:13;;;;;;;11.65;7.03;;;;;;;-149.78;100.00;50322.81;5030320;28;20034;-60
2021/09/16 03:11:39;;;;;;;12.13;6.72;;;;;;;-149.78;100.00;50307.16;5032934;28;20033;-60
2021/09/16 03:14:05;;;;;;;12.93;7.10;;;;;;;-149.78;100.00;50291.50;5025917;28;20037;-61
2021/09/16 03:16:30;;;;;;;11.45;6.22;;;;;;;-149.78;100.00;50314.97;5031736;28;20380;-60
2021/09/16 03:18:56;;;;;;;13.68;7.05;;;;;;;-149.78;100.00;50314.97;5032694;28;20038;-60
2021/09/16 03:21:22;;;;;;;12.50;7.28;;;;;;;-149.78;100.00;50314.97;5032913;28;20469;-60
2021/09/16 03:23:47;;;;;;;13.45;6.57;;;;;;;-149.78;100.00;50330.63;5032811;28;20033;-60
2021/09/16 03:26:13;;;;;;;12.27;6.78;;;;;;;-149.78;100.00;50311.06;5031529;28;20033;-60
2021/09/16 03:28:40;;;;;;;12.18;6.88;;;;;;;-149.78;100.00;50309.13;5030273;28;20056;-60
2021/09/16 03:31:07;;;;;;;12.43;6.60;;;;;;;-149.78;100.00;50326.72;5029936;28;20025;-61
2021/09/16 03:33:33;;;;;;;11.30;6.35;;;;;;;-149.78;100.00;50324.75;5027255;28;20188;-60
2021/09/16 03:35:59;;;;;;;12.70;7.20;;;;;;;-149.78;100.00;50303.25;5031740;28;20049;-60
2021/09/16 03:38:25;;;;;;;14.57;8.00;;;;;;;-149.78;100.00;50293.47;5030565;28;20029;-60
2021/09/16 03:40:50;;;;;;;14.50;7.53;;;;;;;-149.78;100.00;50283.69;5030628;28;20124;-60
2021/09/16 03:43:19;;;;;;;17.80;7.70;;;;;;;-149.78;100.00;50342.38;5030104;28;20040;-61
2021/09/16 03:45:46;;;;;;;14.95;8.05;;;;;;;-149.78;100.00;50328.69;5024514;28;20394;-60
2021/09/16 03:48:12;;;;;;;18.00;8.15;;;;;;;-149.78;100.00;50346.28;5031201;28;20038;-60
2021/09/16 03:50:37;;;;;;;13.25;7.35;;;;;;;-149.78;100.00;50322.81;5032008;28;20549;-60
2021/09/16 03:53:03;;;;;;;13.23;7.03;;;;;;;-149.78;100.00;50324.75;5026646;28;20033;-60
2021/09/16 03:55:29;;;;;;;15.07;8.10;;;;;;;-149.78;100.00;50334.53;5031780;28;20033;-60
2021/09/16 03:57:56;;;;;;;17.00;8.38;;;;;;;-149.78;100.00;50303.25;5031677;28;20053;-60
2021/09/16 04:00:21;;;;;;;19.50;9.98;;;;;;;-149.78;100.00;50350.19;5030677;28;20037;-60
2021/09/16 04:02:47;;;;;;;17.10;9.88;;;;;;;-149.78;100.00;50338.44;5030724;28;20038;-60
2021/09/16 04:05:13;;;;;;;16.95;8.50;;;;;;;-149.78;100.00;50322.81;5031224;28;20539;-60
2021/09/16 04:07:39;;;;;;;16.27;8.63;;;;;;;-149.78;100.00;50350.19;5032070;28;20041;-60
2021/09/16 04:10:06;;;;;;;15.20;7.97;;;;;;;-149.78;100.00;50352.16;5031521;28;20049;-60
2021/09/16 04:12:32;;;;;;;14.80;8.02;;;;;;;-149.78;100.00;50346.28;5026520;28;20037;-60
2021/09/16 04:14:58;;;;;;;14.27;7.90;;;;;;;-149.78;100.00;50342.38;5031528;28;20117;-60
2021/09/16 04:17:23;;;;;;;15.13;8.15;;;;;;;-149.78;100.00;50307.16;5031094;28;20040;-60
2021/09/16 04:19:49;;;;;;;18.80;9.05;;;;;;;-149.78;100.00;50354.09;5028291;28;20037;-61
2021/09/16 04:22:14;;;;;;;18.75;9.07;;;;;;;-149.78;100.00;50334.53;5029169;28;20084;-60
2021/09/16 04:24:40;;;;;;;15.77;8.07;;;;;;;-149.78;100.00;50326.72;5028082;28;20369;-61
2021/09/16 04:27:06;;;;;;;16.08;8.30;;;;;;;-149.78;100.00;50358.00;5031260;28;20067;-60
2021/09/16 04:29:31;;;;;;;18.10;9.15;;;;;;;-149.78;100.00;50365.84;5032432;28;20041;-60
2021/09/16 04:31:57;;;;;;;19.08;9.10;;;;;;;-149.78;100.00;50326.72;5033976;28;20091;-60
2021/09/16 04:34:23;;;;;;;20.88;10.27;;;;;;;-149.78;100.00;50330.63;5034104;28;20033;-60
2021/09/16 04:36:49;;;;;;;18.20;9.90;;;;;;;-149.78;100.00;50334.53;5035597;28;20038;-60
2021/09/16 04:39:15;;;;;;;19.52;10.35;;;;;;;-149.78;100.00;50350.19;5025913;28;20481;-60
2021/09/16 04:41:41;;;;;;;22.35;11.63;;;;;;;-149.78;100.00;50314.97;5032731;28;20485;-60
2021/09/16 04:44:06;;;;;;;20.92;10.65;;;;;;;-149.78;100.00;50350.19;5034421;28;20041;-60
2021/09/16 04:46:33;;;;;;;22.77;10.75;;;;;;;-149.78;100.00;50340.41;5025607;28;20099;-60
2021/09/16 04:48:58;;;;;;;22.30;10.80;;;;;;;-149.78;100.00;50332.59;5030009;28;20397;-60
2021/09/16 04:51:24;;;;;;;23.15;11.38;;;;;;;-149.78;100.00;50358.00;5028152;28;20095;-60
2021/09/16 04:53:49;;;;;;;23.42;10.82;;;;;;;-149.78;100.00;50369.75;5034817;28;20037;-61
2021/09/16 04:56:15;;;;;;;24.33;11.23;;;;;;;-149.78;100.00;50393.22;5034085;28;20507;-60
2021/09/16 04:58:40;;;;;;;20.65;10.60;;;;;;;-149.78;100.00;50320.84;5010148;28;20501;-60
2021/09/16 05:01:06;;;;;;;22.58;10.77;;;;;;;-149.78;100.00;50354.09;5029364;28;20397;-60
2021/09/16 05:03:32;;;;;;;23.45;11.65;;;;;;;-149.78;100.00;50338.44;5033818;28;20029;-60
2021/09/16 05:05:58;;;;;;;19.63;10.50;;;;;;;-149.78;100.00;50348.22;5035391;28;20431;-60
2021/09/16 05:08:23;;;;;;;21.08;10.80;;;;;;;-149.78;100.00;50338.44;5034585;28;20473;-60
2021/09/16 05:10:49;;;;;;;21.98;12.43;;;;;;;-149.78;100.00;50361.91;5033641;28;20037;-60
2021/09/16 05:13:14;;;;;;;22.95;11.52;;;;;;;-149.78;100.00;50352.16;5033945;28;20061;-60
2021/09/16 05:15:40;;;;;;;26.38;12.43;;;;;;;-149.78;100.00;50358.00;5033799;28;20037;-60
2021/09/16 05:18:07;;;;;;;24.27;12.02;;;;;;;-149.78;100.00;50318.91;5034610;28;20038;-60
2021/09/16 05:20:34;;;;;;;22.73;11.52;;;;;;;-149.78;100.00;50377.56;5032869;28;20381;-60
2021/09/16 05:22:59;;;;;;;26.05;12.48;;;;;;;-149.78;100.00;50348.22;5033665;28;20371;-60
2021/09/16 05:25:25;;;;;;;29.58;12.50;;;;;;;-149.78;100.00;50348.22;5035567;28;20044;-60
2021/09/16 05:27:51;;;;;;;24.30;11.98;;;;;;;-149.78;100.00;50385.38;5022234;28;20034;-60
2021/09/16 05:30:17;;;;;;;25.95;11.63;;;;;;;-149.78;100.00;50373.66;5035079;28;20025;-60
2021/09/16 05:32:42;;;;;;;26.27;11.85;;;;;;;-149.78;100.00;50365.84;5035370;28;20044;-60
2021/09/16 05:35:08;;;;;;;26.10;11.65;;;;;;;-149.78;100.00;50361.91;5032044;28;20171;-60
2021/09/16 05:37:34;;;;;;;28.90;12.30;;;;;;;-149.78;100.00;50401.03;5035331;28;20054;-60
2021/09/16 05:40:00;;;;;;;24.15;11.55;;;;;;;-149.78;100.00;50354.09;5018676;28;20069;-60
2021/09/16 05:42:26;;;;;;;25.48;11.60;;;;;;;-149.78;100.00;50373.66;5023789;28;20033;-60
2021/09/16 05:44:55;;;;;;;26.40;11.43;;;;;;;-149.78;100.00;50385.38;5022523;28;20100;-60
2021/09/16 05:47:21;;;;;;;28.80;12.77;;;;;;;-149.78;100.00;50354.09;5026447;28;20095;-60
2021/09/16 05:49:47;;;;;;;27.58;12.27;;;;;;;-149.78;100.00;50373.66;5035048;28;20029;-60
2021/09/16 05:52:13;;;;;;;29.73;13.00;;;;;;;-149.78;100.00;50371.69;5027779;28;20040;-60
2021/09/16 05:54:39;;;;;;;25.20;11.70;;;;;;;-149.78;100.00;50369.75;5023881;28;20037;-60
2021/09/16 05:57:05;;;;;;;26.30;11.43;;;;;;;-149.78;100.00;50369.75;5032161;28;20033;-60
2021/09/16 05:59:31;;;;;;;22.65;11.05;;;;;;;-149.78;100.00;50373.66;5023438;28;20030;-60
2021/09/16 06:01:57;;;;;;;27.30;11.63;;;;;;;-149.78;100.00;50363.88;5022158;28;20037;-60
2021/09/16 06:04:24;;;;;;;30.27;12.32;;;;;;;-149.78;100.00;50354.09;5020064;28;20037;-60
2021/09/16 06:06:50;;;;;;;25.30;12.07;;;;;;;-149.78;100.00;50389.31;5016067;28;20061;-60
2021/09/16 06:09:15;;;;;;;25.27;11.35;;;;;;;-149.78;100.00;50346.28;5023009;28;20057;-60
2021/09/16 06:11:41;;;;;;;27.65;12.93;;;;;;;-149.78;100.00;50354.09;5021314;28;20056;-60
2021/09/16 06:14:07;;;;;;;26.05;12.02;;;;;;;-149.78;100.00;50377.56;5021512;28;20025;-59
2021/09/16 06:16:33;;;;;;;24.40;12.18;;;;;;;-149.78;100.00;50361.91;5030560;28;20515;-60
2021/09/16 06:18:58;;;;;;;25.73;12.02;;;;;;;-149.78;100.00;50361.91;5017001;28;20029;-60
2021/09/16 06:21:24;;;;;;;26.05;12.07;;;;;;;-149.78;100.00;50393.22;5016963;28;20042;-59
2021/09/16 06:23:50;;;;;;;28.08;11.68;;;;;;;-149.78;100.00;50365.84;5019641;28;20072;-60
2021/09/16 06:26:15;;;;;;;27.23;12.00;;;;;;;-149.78;100.00;50338.44;5035775;28;20040;-60
2021/09/16 06:28:42;;;;;;;22.08;10.85;;;;;;;-149.78;100.00;50387.34;5031199;28;20037;-60
2021/09/16 06:31:07;;;;;;;24.48;12.43;;;;;;;-149.78;100.00;50330.63;5034096;28;20366;-59
2021/09/16 06:33:33;;;;;;;24.73;11.27;;;;;;;-149.78;100.00;50334.53;5025552;28;20397;-59
2021/09/16 06:35:59;;;;;;;23.67;11.38;;;;;;;-149.78;100.00;50334.53;5022195;28;20060;-59
2021/09/16 06:38:24;;;;;;;29.17;13.80;;;;;;;-149.78;100.00;50338.44;5022569;28;20045;-59
2021/09/16 06:40:50;;;;;;;27.67;12.68;;;;;;;-149.78;100.00;50311.06;5017381;28;20034;-59
2021/09/16 06:43:16;;;;;;;27.98;12.25;;;;;;;-149.78;100.00;50322.81;5031487;28;20103;-59
2021/09/16 06:45:41;;;;;;;24.20;10.45;;;;;;;-149.78;100.00;50338.44;5018326;28;20045;-60
2021/09/16 06:48:07;;;;;;;17.98;10.05;;;;;;;-149.78;100.00;50273.91;5024303;28;20528;-61
2021/09/16 06:50:34;;;;;;;19.23;9.25;;;;;;;-149.78;100.00;50268.03;5024658;28;20170;-60
2021/09/16 06:52:59;;;;;;;18.65;8.88;;;;;;;-149.78;100.00;50197.66;5020137;28;20046;-60
2021/09/16 06:55:25;;;;;;;13.82;8.10;;;;;;;-149.78;100.00;50185.91;5022041;28;20034;-60
2021/09/16 06:57:50;;;;;;;13.50;8.45;;;;;;;-149.78;100.00;50170.25;5020226;28;20484;-59
2021/09/16 07:00:16;;;;;;;14.00;8.82;;;;;;;-149.78;100.00;50174.19;5019562;28;20045;-62
2021/09/16 07:02:48;;;;;;;15.73;8.98;;;;;;;-149.78;100.00;50170.25;5026450;28;20037;-62
2021/09/16 07:05:14;;;;;;;15.70;8.90;;;;;;;-149.78;100.00;50221.13;5021598;28;20033;-61
2021/09/16 07:07:39;;;;;;;13.93;8.70;;;;;;;-149.78;100.00;50174.19;5030405;28;20041;-61
2021/09/16 07:10:06;;;;;;;13.60;8.82;;;;;;;-149.78;100.00;50199.59;5027403;28;20083;-61
2021/09/16 07:12:31;;;;;;;16.20;8.98;;;;;;;-149.78;100.00;50240.66;5023489;28;20064;-60
2021/09/16 07:14:58;;;;;;;14.75;8.43;;;;;;;-149.78;100.00;50225.03;5030669;28;20404;-61
2021/09/16 07:17:25;;;;;;;19.20;9.27;;;;;;;-149.78;100.00;50240.66;5025794;28;20032;-60
2021/09/16 07:19:51;;;;;;;14.35;8.45;;;;;;;-149.78;100.00;50240.66;5029101;28;20418;-60
2021/09/16 07:22:17;;;;;;;15.93;8.82;;;;;;;-149.78;100.00;50256.31;5027179;28;20034;-60
2021/09/16 07:24:43;;;;;;;13.50;8.63;;;;;;;-149.78;100.00;50213.28;5024251;28;20036;-60
2021/09/16 07:27:09;;;;;;;17.15;10.00;;;;;;;-149.78;100.00;50185.91;5022376;28;20452;-60
2021/09/16 07:29:34;;;;;;;20.33;10.60;;;;;;;-149.78;100.00;50250.44;5015410;28;20053;-60
2021/09/16 07:32:00;;;;;;;16.73;9.77;;;;;;;-149.78;100.00;50248.50;5022185;28;20084;-60
2021/09/16 07:34:26;;;;;;;18.17;10.07;;;;;;;-149.78;100.00;50244.59;5019782;28;20026;-60
2021/09/16 07:36:52;;;;;;;21.10;11.50;;;;;;;-149.78;100.00;50219.16;5020379;28;20063;-60
2021/09/16 07:39:19;;;;;;;19.52;10.73;;;;;;;-149.78;100.00;50244.59;5039494;28;20056;-60
2021/09/16 07:41:46;;;;;;;19.35;10.07;;;;;;;-149.78;100.00;50209.38;5034415;28;20041;-61
2021/09/16 07:44:13;;;;;;;21.25;10.38;;;;;;;-149.78;100.00;50197.66;5032851;28;20025;-61
2021/09/16 07:46:39;;;;;;;18.67;10.27;;;;;;;-149.78;100.00;50213.28;5026310;28;20066;-61
2021/09/16 07:49:06;;;;;;;21.00;10.55;;;;;;;-149.78;100.00;50232.84;5030407;28;20125;-62
2021/09/16 07:51:33;;;;;;;19.70;10.07;;;;;;;-149.78;100.00;50174.19;5036035;28;20025;-61
2021/09/16 07:53:59;;;;;;;20.70;11.55;;;;;;;-149.78;100.00;50158.53;5033333;28;20087;-61
2021/09/16 07:56:24;;;;;;;15.82;9.90;;;;;;;-149.78;100.00;50228.94;5038586;28;20392;-61
2021/09/16 07:58:50;;;;;;;17.48;9.85;;;;;;;-149.78;100.00;50162.44;5030110;28;20520;-61
2021/09/16 08:01:16;;;;;;;18.30;10.07;;;;;;;-149.78;100.00;50115.50;5033357;28;20393;-61
2021/09/16 08:03:41;;;;;;;18.05;10.18;;;;;;;-149.78;100.00;50166.34;5030811;28;20030;-61
2021/09/16 08:06:08;;;;;;;17.13;10.07;;;;;;;-149.78;100.00;50148.75;5032891;28;20034;-61
2021/09/16 08:08:33;;;;;;;17.08;9.65;;;;;;;-149.78;100.00;50152.66;5038616;28;20064;-62
2021/09/16 08:11:00;;;;;;;15.70;9.60;;;;;;;-149.78;100.00;50125.28;5026201;28;20064;-61
2021/09/16 08:13:26;;;;;;;17.52;10.48;;;;;;;-149.78;100.00;50150.72;5029692;28;20030;-62
2021/09/16 08:15:53;;;;;;;20.55;10.38;;;;;;;-149.78;100.00;50107.69;5019669;28;20029;-61
2021/09/16 08:18:19;;;;;;;16.45;9.13;;;;;;;-149.78;93.71;50060.75;5033054;28;20538;-62
2021/09/16 08:20:49;;;;;;;12.52;8.75;;;;;;;-149.78;75.48;50088.13;5040045;28;20381;-62
2021/09/16 08:23:18;;;;;;;14.95;9.35;;;;;;;-149.78;73.79;50084.22;5032076;28;20517;-62
2021/09/16 08:25:44;;;;;;;18.15;9.52;;;;;;;-149.78;75.34;50162.44;5029250;28;20038;-62
2021/09/16 08:28:10;;;;;;;15.15;9.73;;;;;;;-149.78;78.73;50076.41;5033745;28;20038;-64
2021/09/16 08:30:36;;;;;;;14.57;9.98;;;;;;;-149.78;76.40;50101.81;5031994;28;20035;-62
2021/09/16 08:33:03;;;;;;;18.75;10.95;;;;;;;-149.78;74.10;50092.03;5026205;28;20025;-62
2021/09/16 08:35:29;;;;;;;16.98;8.95;;;;;;;-149.78;65.19;50037.28;5020707;28;20117;-63
2021/09/16 08:37:54;;;;;;;16.08;10.80;;;;;;;-149.78;58.98;50025.56;5028977;28;20145;-63
2021/09/16 08:40:22;;;;;;;17.20;10.82;;;;;;;-149.78;57.11;49994.25;5033279;28;20041;-62
2021/09/16 10:45:11;;;;;;;;;;;;;;;-149.78;44.30;49919.94;5562448;24;20054;31
2021/09/16 10:47:43;;;;;;;7.20;3.85;;;;;;;-149.78;45.23;49923.88;5094925;24;20447;-62
2021/09/16 10:50:20;;;;;;;5.78;2.85;;;;;;;-149.78;45.63;49966.88;4859910;29;20128;-62
2021/09/16 10:52:46;;;;;;;4.15;2.67;;;;;;;-149.78;47.87;49978.63;4860423;29;20037;-61
2021/09/16 10:55:11;;;;;;;2.53;2.33;;;;;;;-149.78;50.42;50025.56;4853635;29;20090;-61
2021/09/16 10:57:40;;;;;;;3.78;2.65;;;;;;;-149.78;53.00;50017.72;4860177;29;20041;-61
2021/09/16 11:00:16;;;;;;;4.03;3.20;;;;;;;-149.78;54.81;49994.25;4857807;29;20034;-61
2021/09/16 11:02:45;;;;;;;6.15;3.10;;;;;;;-149.78;58.12;50002.09;4857611;29;20549;-61
2021/09/16 11:05:20;;;;;;;4.85;3.03;;;;;;;-149.78;52.96;50021.63;4859011;29;20053;-61
2021/09/16 11:07:49;;;;;;;3.95;3.10;;;;;;;-149.78;50.29;49992.31;4860428;29;20097;-61
2021/09/16 11:10:14;;;;;;;4.82;2.78;;;;;;;-149.78;48.81;49994.25;4858969;29;20041;-61
2021/09/16 11:13:04;;;;;;;3.42;2.80;;;;;;;-149.78;50.34;49994.25;4860751;29;20049;-61
2021/09/16 11:15:40;;;;;;;3.25;2.67;;;;;;;-149.78;52.76;50006.00;4855951;29;20100;-61
2021/09/16 11:18:13;;;;;;;3.95;2.92;;;;;;;-149.78;53.45;50045.09;4858484;29;20066;-61
2021/09/16 11:20:42;;;;;;;3.88;3.00;;;;;;;-149.78;55.11;50041.19;4858733;29;20041;-61
2021/09/16 11:23:09;;;;;;;3.63;2.53;;;;;;;-149.78;54.31;50021.63;4859983;29;20056;-61
2021/09/16 11:25:40;;;;;;;3.58;2.78;;;;;;;-149.78;52.03;50000.13;4856280;29;20373;-61
2021/09/16 11:28:07;;;;;;;4.23;2.90;;;;;;;-149.78;51.43;50013.81;4847584;29;20037;-61
2021/09/16 11:30:38;;;;;;;6.43;2.92;;;;;;;-149.78;53.15;49994.25;4858085;29;20594;-61
2021/09/16 11:33:07;;;;;;;3.60;2.85;;;;;;;-149.78;52.88;50006.00;4857207;29;20033;-61
2021/09/16 11:35:33;;;;;;;4.18;3.13;;;;;;;-149.78;52.68;50035.34;4857654;29;20084;-61
2021/09/16 11:38:01;;;;;;;6.32;3.58;;;;;;;-149.78;53.00;50033.38;4852927;29;20488;-61
2021/09/16 11:40:32;;;;;;;6.15;3.47;;;;;;;-149.78;54.09;50037.28;4856310;29;20045;-60
2021/09/16 11:43:04;;;;;;;5.53;3.03;;;;;;;-149.78;53.14;50033.38;4854427;29;20075;-60
2021/09/16 11:45:37;;;;;;;4.55;3.25;;;;;;;-149.78;54.68;50029.47;4856686;29;20548;-61
2021/09/16 11:48:14;;;;;;;4.07;3.30;;;;;;;-149.78;57.03;50056.84;4847149;29;20053;-61
2021/09/16 11:50:43;;;;;;;3.10;2.35;;;;;;;-149.78;55.05;50049.03;4853412;29;20090;-60
2021/09/16 11:53:18;;;;;;;3.92;3.13;;;;;;;-149.78;54.72;50054.88;4833873;29;20085;-60
2021/09/16 11:55:53;;;;;;;4.03;2.60;;;;;;;-149.78;54.35;50045.09;4860550;29;20061;-60
2021/09/16 11:58:24;;;;;;;4.53;3.53;;;;;;;-149.78;54.42;50050.97;4858086;29;20039;-60
2021/09/16 12:00:55;;;;;;;4.18;3.30;;;;;;;-149.78;55.54;50080.31;4859134;29;20037;-60
2021/09/16 12:03:35;;;;;;;5.22;3.97;;;;;;;-149.78;55.09;50029.47;4859074;29;20026;-60
2021/09/16 12:06:03;;;;;;;5.05;3.97;;;;;;;-149.78;54.29;50064.66;4859575;29;20056;-60
2021/09/16 12:08:36;;;;;;;6.20;4.20;;;;;;;-149.78;54.08;50045.09;4859088;29;20033;-60
2021/09/16 12:11:22;;;;;;;6.43;4.55;;;;;;;-149.78;53.85;50060.75;4860958;29;20040;-60
2021/09/16 12:13:53;;;;;;;5.10;4.28;;;;;;;-149.78;54.90;50049.03;4854637;29;20092;-60
2021/09/16 12:16:24;;;;;;;5.43;4.38;;;;;;;-149.78;57.00;50060.75;4860275;29;20081;-60
2021/09/16 12:18:59;;;;;;;5.28;4.32;;;;;;;-149.78;56.00;50072.50;4859496;29;20362;-61
2021/09/16 12:21:37;;;;;;;8.45;4.45;;;;;;;-149.78;56.41;50072.50;4851000;29;20025;-60
2021/09/16 12:24:15;;;;;;;5.70;4.55;;;;;;;-149.78;56.75;50035.34;4864358;29;20057;-60
2021/09/16 12:26:46;;;;;;;5.50;4.45;;;;;;;-149.78;56.35;50064.66;4843833;29;20034;-60
2021/09/16 12:29:14;;;;;;;6.07;4.97;;;;;;;-149.78;55.51;50041.19;4844784;29;20055;-60
2021/09/16 12:31:42;;;;;;;6.32;5.35;;;;;;;-149.78;55.30;50056.84;4841624;29;20022;-60
2021/09/16 12:34:12;;;;;;;6.93;5.25;;;;;;;-149.78;56.25;50072.50;4845505;29;20038;-60
2021/09/16 12:36:53;;;;;;;5.60;4.65;;;;;;;-149.78;56.15;49994.25;4844759;29;20093;-60
2021/09/16 12:39:19;;;;;;;6.15;4.28;;;;;;;-149.78;55.30;50031.41;4845790;29;20037;-60
2021/09/16 12:41:53;;;;;;;4.93;4.03;;;;;;;-149.78;54.32;50045.09;4849124;29;20061;-61
2021/09/16 12:44:22;;;;;;;6.78;4.50;;;;;;;-149.78;54.12;49998.19;4846427;29;20137;-59
2021/09/16 12:46:58;;;;;;;6.03;4.45;;;;;;;-149.78;54.53;50056.84;4844785;29;20054;-60
2021/09/16 12:49:42;;;;;;;5.85;4.70;;;;;;;-149.78;55.63;50049.03;4851515;29;20061;-60
2021/09/16 12:52:21;;;;;;;7.50;4.57;;;;;;;-149.78;55.69;50045.09;4850618;29;20026;-60
2021/09/16 12:54:55;;;;;;;7.22;5.38;;;;;;;-149.78;55.76;50074.44;4851062;29;20033;-60
2021/09/16 12:57:28;;;;;;;7.78;5.82;;;;;;;-149.78;56.70;50021.63;4850699;29;20125;-61
2021/09/16 13:00:03;;;;;;;6.72;5.40;;;;;;;-149.78;57.38;50041.19;4849732;29;20048;-61
2021/09/16 13:02:51;;;;;;;6.18;5.00;;;;;;;-149.78;56.26;50021.63;4858607;29;20433;-61
2021/09/16 13:05:16;;;;;;;7.18;5.15;;;;;;;-149.78;54.51;50017.72;4861993;29;20041;-60
2021/09/16 13:07:44;;;;;;;5.95;5.10;;;;;;;-149.78;55.56;50029.47;4861076;29;20089;-60